sensor_id;sensor_type;location;lat;lon;timestamp;pressure;altitude;pressure_sealevel;temperature;humidity
20612;BME280;10465;42.686;23.364;2023-08-21T00:00:10;95321.25;;;26.62;49.55
20612;BME280;10465;42.686;23.364;2023-08-21T00:02:37;95322.84;;;26.56;49.78
20612;BME280;10465;42.686;23.364;2023-08-21T00:05:02;95320.53;;;26.51;50.10
20612;BME280;10465;42.686;23.364;2023-08-21T00:07:28;95320.53;;;26.54;50.18
20612;BME280;10465;42.686;23.364;2023-08-21T00:09:53;95305.44;;;26.46;50.32
20612;BME280;10465;42.686;23.364;2023-08-21T00:12:19;95322.84;;;26.56;50.21
20612;BME280;10465;42.686;23.364;2023-08-21T00:14:44;95317.84;;;26.47;49.98
20612;BME280;10465;42.686;23.364;2023-08-21T00:17:10;95319.00;;;26.50;49.79
20612;BME280;10465;42.686;23.364;2023-08-21T00:19:35;95310.13;;;26.38;50.36
20612;BME280;10465;42.686;23.364;2023-08-21T00:22:00;95320.97;;;26.46;51.20
20612;BME280;10465;42.686;23.364;2023-08-21T00:24:26;95322.13;;;26.37;51.48
20612;BME280;10465;42.686;23.364;2023-08-21T00:26:51;95320.97;;;26.35;51.15
20612;BME280;10465;42.686;23.364;2023-08-21T00:29:17;95322.09;;;26.41;51.39
20612;BME280;10465;42.686;23.364;2023-08-21T00:31:42;95298.53;;;26.24;51.45
20612;BME280;10465;42.686;23.364;2023-08-21T00:34:08;95317.47;;;26.38;51.62
20612;BME280;10465;42.686;23.364;2023-08-21T00:36:33;95323.69;;;26.35;51.47
20612;BME280;10465;42.686;23.364;2023-08-21T00:38:58;95309.78;;;26.26;50.58
20612;BME280;10465;42.686;23.364;2023-08-21T00:41:24;95326.41;;;26.31;50.86
20612;BME280;10465;42.686;23.364;2023-08-21T00:43:49;95330.69;;;26.29;51.04
20612;BME280;10465;42.686;23.364;2023-08-21T00:46:15;95322.97;;;26.24;50.98
20612;BME280;10465;42.686;23.364;2023-08-21T00:48:42;95329.53;;;26.30;51.59
20612;BME280;10465;42.686;23.364;2023-08-21T00:51:10;95333.84;;;26.20;51.69
20612;BME280;10465;42.686;23.364;2023-08-21T00:53:37;95321.44;;;26.16;51.03
20612;BME280;10465;42.686;23.364;2023-08-21T00:56:03;95338.06;;;26.25;51.75
20612;BME280;10465;42.686;23.364;2023-08-21T00:58:29;95324.59;;;26.10;51.63
20612;BME280;10465;42.686;23.364;2023-08-21T01:00:55;95320.72;;;26.01;51.49
20612;BME280;10465;42.686;23.364;2023-08-21T01:03:20;95346.25;;;26.18;51.14
20612;BME280;10465;42.686;23.364;2023-08-21T01:05:49;95331.53;;;26.15;51.74
20612;BME280;10465;42.686;23.364;2023-08-21T01:08:19;95319.19;;;26.00;52.22
20612;BME280;10465;42.686;23.364;2023-08-21T01:13:23;95321.13;;;25.96;52.16
20612;BME280;10465;42.686;23.364;2023-08-21T01:15:51;95331.63;;;25.94;52.25
20612;BME280;10465;42.686;23.364;2023-08-21T01:18:20;95336.25;;;25.97;51.91
20612;BME280;10465;42.686;23.364;2023-08-21T01:20:46;95325.84;;;25.77;52.67
20612;BME280;10465;42.686;23.364;2023-08-21T01:23:36;95327.75;;;25.87;52.85
20612;BME280;10465;42.686;23.364;2023-08-21T01:26:02;95323.88;;;25.74;52.86
20612;BME280;10465;42.686;23.364;2023-08-21T01:28:33;95336.69;;;25.74;53.70
20612;BME280;10465;42.686;23.364;2023-08-21T01:31:06;95335.50;;;25.68;53.75
20612;BME280;10465;42.686;23.364;2023-08-21T01:33:35;95338.25;;;25.60;54.10
20612;BME280;10465;42.686;23.364;2023-08-21T01:36:03;95341.34;;;25.55;54.58
20612;BME280;10465;42.686;23.364;2023-08-21T01:38:34;95322.03;;;25.28;55.04
20612;BME280;10465;42.686;23.364;2023-08-21T01:41:01;95313.13;;;25.17;55.50
20612;BME280;10465;42.686;23.364;2023-08-21T01:43:27;95340.22;;;25.28;55.03
20612;BME280;10465;42.686;23.364;2023-08-21T01:45:52;95347.94;;;25.15;55.60
20612;BME280;10465;42.686;23.364;2023-08-21T01:48:18;95303.81;;;24.86;55.73
20612;BME280;10465;42.686;23.364;2023-08-21T01:50:43;95338.25;;;25.07;55.21
20612;BME280;10465;42.686;23.364;2023-08-21T01:53:08;95341.75;;;25.04;55.25
20612;BME280;10465;42.686;23.364;2023-08-21T01:55:34;95328.19;;;24.89;55.06
20612;BME280;10465;42.686;23.364;2023-08-21T01:57:59;95329.38;;;24.96;55.30
20612;BME280;10465;42.686;23.364;2023-08-21T02:00:25;95325.88;;;24.91;55.29
20612;BME280;10465;42.686;23.364;2023-08-21T02:02:50;95329.34;;;24.88;55.47
20612;BME280;10465;42.686;23.364;2023-08-21T02:05:16;95330.88;;;24.86;55.93
20612;BME280;10465;42.686;23.364;2023-08-21T02:07:41;95335.91;;;24.91;55.38
20612;BME280;10465;42.686;23.364;2023-08-21T02:10:07;95328.94;;;24.83;55.71
20612;BME280;10465;42.686;23.364;2023-08-21T02:12:33;95333.97;;;24.81;56.14
20612;BME280;10465;42.686;23.364;2023-08-21T02:14:58;95337.84;;;24.73;56.02
20612;BME280;10465;42.686;23.364;2023-08-21T02:17:26;95327.75;;;24.55;56.56
20612;BME280;10465;42.686;23.364;2023-08-21T02:19:51;95341.66;;;24.54;57.16
20612;BME280;10465;42.686;23.364;2023-08-21T02:22:17;95322.69;;;24.47;57.29
20612;BME280;10465;42.686;23.364;2023-08-21T02:24:42;95329.69;;;24.51;57.16
20612;BME280;10465;42.686;23.364;2023-08-21T02:27:08;95317.59;;;24.34;57.47
20612;BME280;10465;42.686;23.364;2023-08-21T02:29:33;95332.34;;;24.40;57.56
20612;BME280;10465;42.686;23.364;2023-08-21T02:31:59;95293.59;;;24.22;57.76
20612;BME280;10465;42.686;23.364;2023-08-21T02:34:24;95322.22;;;24.30;57.64
20612;BME280;10465;42.686;23.364;2023-08-21T02:36:50;95333.91;;;24.41;57.74
20612;BME280;10465;42.686;23.364;2023-08-21T02:39:15;95331.94;;;24.38;57.93
20612;BME280;10465;42.686;23.364;2023-08-21T02:41:41;95329.56;;;24.30;57.70
20612;BME280;10465;42.686;23.364;2023-08-21T02:44:06;95334.97;;;24.30;57.82
20612;BME280;10465;42.686;23.364;2023-08-21T02:46:33;95314.84;;;24.16;58.10
20612;BME280;10465;42.686;23.364;2023-08-21T02:49:01;95340.78;;;24.28;57.74
20612;BME280;10465;42.686;23.364;2023-08-21T02:51:27;95326.06;;;24.22;58.31
20612;BME280;10465;42.686;23.364;2023-08-21T02:53:53;95325.69;;;24.24;57.69
20612;BME280;10465;42.686;23.364;2023-08-21T02:56:18;95334.19;;;24.15;57.78
20612;BME280;10465;42.686;23.364;2023-08-21T02:58:44;95334.94;;;24.15;57.56
20612;BME280;10465;42.686;23.364;2023-08-21T03:01:09;95333.00;;;24.12;57.81
20612;BME280;10465;42.686;23.364;2023-08-21T03:03:35;95322.88;;;23.95;58.11
20612;BME280;10465;42.686;23.364;2023-08-21T03:06:01;95338.34;;;23.95;58.54
20612;BME280;10465;42.686;23.364;2023-08-21T03:08:26;95342.22;;;24.01;58.76
20612;BME280;10465;42.686;23.364;2023-08-21T03:10:52;95339.91;;;24.03;58.45
20612;BME280;10465;42.686;23.364;2023-08-21T03:13:17;95347.19;;;23.88;59.06
20612;BME280;10465;42.686;23.364;2023-08-21T03:15:43;95337.13;;;23.88;58.96
20612;BME280;10465;42.686;23.364;2023-08-21T03:18:08;95352.25;;;24.00;58.88
20612;BME280;10465;42.686;23.364;2023-08-21T03:20:33;95319.31;;;23.77;58.53
20612;BME280;10465;42.686;23.364;2023-08-21T03:22:59;95361.50;;;23.96;58.67
20612;BME280;10465;42.686;23.364;2023-08-21T03:25:25;95348.72;;;23.89;58.77
20612;BME280;10465;42.686;23.364;2023-08-21T03:27:52;95353.72;;;23.83;58.96
20612;BME280;10465;42.686;23.364;2023-08-21T03:30:18;95344.09;;;23.93;58.89
20612;BME280;10465;42.686;23.364;2023-08-21T03:32:43;95360.41;;;24.04;58.14
20612;BME280;10465;42.686;23.364;2023-08-21T03:35:09;95357.72;;;24.07;58.16
20612;BME280;10465;42.686;23.364;2023-08-21T03:37:34;95327.13;;;23.92;58.39
20612;BME280;10465;42.686;23.364;2023-08-21T03:40:04;95363.47;;;24.06;58.46
20612;BME280;10465;42.686;23.364;2023-08-21T03:42:30;95347.69;;;24.11;58.22
20612;BME280;10465;42.686;23.364;2023-08-21T03:44:55;95339.09;;;23.95;58.58
20612;BME280;10465;42.686;23.364;2023-08-21T03:47:20;95362.66;;;23.98;58.63
20612;BME280;10465;42.686;23.364;2023-08-21T03:49:46;95341.41;;;23.93;58.40
20612;BME280;10465;42.686;23.364;2023-08-21T03:52:13;95343.75;;;23.98;58.59
20612;BME280;10465;42.686;23.364;2023-08-21T03:54:39;95355.75;;;24.04;58.60
20612;BME280;10465;42.686;23.364;2023-08-21T03:57:07;95340.66;;;23.96;58.60
20612;BME280;10465;42.686;23.364;2023-08-21T03:59:32;95354.63;;;24.12;58.41
20612;BME280;10465;42.686;23.364;2023-08-21T04:01:58;95340.69;;;24.03;58.00
20612;BME280;10465;42.686;23.364;2023-08-21T04:04:23;95363.09;;;24.04;58.70
20612;BME280;10465;42.686;23.364;2023-08-21T04:06:49;95349.53;;;23.97;58.73
20612;BME280;10465;42.686;23.364;2023-08-21T04:09:15;95356.88;;;23.96;58.78
20612;BME280;10465;42.686;23.364;2023-08-21T04:11:40;95364.25;;;23.99;59.22
20612;BME280;10465;42.686;23.364;2023-08-21T04:14:06;95369.66;;;23.99;59.13
20612;BME280;10465;42.686;23.364;2023-08-21T04:16:31;95361.09;;;23.93;59.48
20612;BME280;10465;42.686;23.364;2023-08-21T04:18:57;95362.69;;;23.95;59.58
20612;BME280;10465;42.686;23.364;2023-08-21T04:21:23;95360.28;;;23.86;60.05
20612;BME280;10465;42.686;23.364;2023-08-21T04:23:48;95375.81;;;24.00;59.70
20612;BME280;10465;42.686;23.364;2023-08-21T04:26:13;95376.59;;;24.00;59.98
20612;BME280;10465;42.686;23.364;2023-08-21T04:28:39;95374.28;;;24.02;59.94
20612;BME280;10465;42.686;23.364;2023-08-21T04:31:05;95376.63;;;24.07;59.45
20612;BME280;10465;42.686;23.364;2023-08-21T04:33:32;95370.84;;;24.12;60.20
20612;BME280;10465;42.686;23.364;2023-08-21T04:35:58;95354.19;;;24.00;60.32
20612;BME280;10465;42.686;23.364;2023-08-21T04:38:24;95373.16;;;24.10;60.32
20612;BME280;10465;42.686;23.364;2023-08-21T04:40:50;95381.72;;;24.20;59.99
20612;BME280;10465;42.686;23.364;2023-08-21T04:43:15;95380.59;;;24.28;59.98
20612;BME280;10465;42.686;23.364;2023-08-21T04:45:51;95380.16;;;24.22;59.44
20612;BME280;10465;42.686;23.364;2023-08-21T04:48:20;95387.97;;;24.31;59.29
20612;BME280;10465;42.686;23.364;2023-08-21T04:50:46;95372.47;;;24.28;59.38
20612;BME280;10465;42.686;23.364;2023-08-21T04:53:12;95357.72;;;24.14;59.21
20612;BME280;10465;42.686;23.364;2023-08-21T04:55:39;95386.00;;;24.24;59.15
20612;BME280;10465;42.686;23.364;2023-08-21T04:58:09;95391.81;;;24.33;59.58
20612;BME280;10465;42.686;23.364;2023-08-21T05:00:35;95384.88;;;24.32;59.88
20612;BME280;10465;42.686;23.364;2023-08-21T05:03:01;95367.81;;;24.21;59.25
20612;BME280;10465;42.686;23.364;2023-08-21T05:05:26;95400.00;;;24.40;59.09
20612;BME280;10465;42.686;23.364;2023-08-21T05:07:53;95407.00;;;24.52;59.09
20612;BME280;10465;42.686;23.364;2023-08-21T05:10:18;95380.31;;;24.47;58.58
20612;BME280;10465;42.686;23.364;2023-08-21T05:12:44;95404.66;;;24.54;58.87
20612;BME280;10465;42.686;23.364;2023-08-21T05:15:10;95400.03;;;24.51;59.06
20612;BME280;10465;42.686;23.364;2023-08-21T05:17:35;95405.88;;;24.60;59.15
20612;BME280;10465;42.686;23.364;2023-08-21T05:20:01;95403.19;;;24.64;58.92
20612;BME280;10465;42.686;23.364;2023-08-21T05:22:26;95409.75;;;24.66;58.44
20612;BME280;10465;42.686;23.364;2023-08-21T05:24:52;95387.28;;;24.52;56.97
20612;BME280;10465;42.686;23.364;2023-08-21T05:27:17;95407.44;;;24.69;56.71
20612;BME280;10465;42.686;23.364;2023-08-21T05:29:43;95407.44;;;24.79;56.51
20612;BME280;10465;42.686;23.364;2023-08-21T05:32:08;95379.56;;;24.61;56.05
20612;BME280;10465;42.686;23.364;2023-08-21T05:34:34;95399.72;;;24.81;55.88
20612;BME280;10465;42.686;23.364;2023-08-21T05:36:59;95374.56;;;24.70;56.05
20612;BME280;10465;42.686;23.364;2023-08-21T05:39:25;95398.59;;;24.89;55.41
20612;BME280;10465;42.686;23.364;2023-08-21T05:41:50;95397.06;;;24.99;55.43
20612;BME280;10465;42.686;23.364;2023-08-21T05:44:16;95400.94;;;24.98;55.50
20612;BME280;10465;42.686;23.364;2023-08-21T05:46:41;95406.34;;;25.02;55.36
20612;BME280;10465;42.686;23.364;2023-08-21T05:49:07;95398.22;;;25.05;54.96
20612;BME280;10465;42.686;23.364;2023-08-21T05:51:36;95389.72;;;25.00;54.52
20612;BME280;10465;42.686;23.364;2023-08-21T05:54:01;95388.22;;;25.09;54.49
20612;BME280;10465;42.686;23.364;2023-08-21T05:56:27;95366.13;;;24.97;54.59
20612;BME280;10465;42.686;23.364;2023-08-21T05:58:52;95393.66;;;25.20;54.78
20612;BME280;10465;42.686;23.364;2023-08-21T06:01:18;95399.84;;;25.24;54.37
20612;BME280;10465;42.686;23.364;2023-08-21T06:03:43;95401.38;;;25.29;54.37
20612;BME280;10465;42.686;23.364;2023-08-21T06:06:09;95402.94;;;25.40;54.14
20612;BME280;10465;42.686;23.364;2023-08-21T06:08:35;95404.50;;;25.45;53.56
20612;BME280;10465;42.686;23.364;2023-08-21T06:11:00;95394.41;;;25.31;54.08
20612;BME280;10465;42.686;23.364;2023-08-21T06:13:25;95390.56;;;25.32;54.16
20612;BME280;10465;42.686;23.364;2023-08-21T06:15:52;95390.94;;;25.42;54.14
20612;BME280;10465;42.686;23.364;2023-08-21T06:18:18;95367.72;;;25.33;53.68
20612;BME280;10465;42.686;23.364;2023-08-21T06:20:43;95388.59;;;25.54;53.81
20612;BME280;10465;42.686;23.364;2023-08-21T06:23:09;95397.50;;;25.62;53.53
20612;BME280;10465;42.686;23.364;2023-08-21T06:25:36;95407.94;;;25.74;53.24
20612;BME280;10465;42.686;23.364;2023-08-21T06:28:01;95407.53;;;25.76;53.14
20612;BME280;10465;42.686;23.364;2023-08-21T06:30:27;95382.00;;;25.66;53.03
20612;BME280;10465;42.686;23.364;2023-08-21T06:32:52;95411.81;;;25.84;52.68
20612;BME280;10465;42.686;23.364;2023-08-21T06:35:18;95404.47;;;25.92;52.32
20612;BME280;10465;42.686;23.364;2023-08-21T06:37:43;95416.44;;;26.05;52.09
20612;BME280;10465;42.686;23.364;2023-08-21T06:40:09;95418.00;;;26.13;52.02
20612;BME280;10465;42.686;23.364;2023-08-21T06:42:34;95406.31;;;26.20;51.54
20612;BME280;10465;42.686;23.364;2023-08-21T06:45:00;95401.31;;;26.18;51.64
20612;BME280;10465;42.686;23.364;2023-08-21T06:47:25;95418.28;;;26.36;51.34
20612;BME280;10465;42.686;23.364;2023-08-21T06:49:51;95414.78;;;26.39;51.72
20612;BME280;10465;42.686;23.364;2023-08-21T06:52:17;95405.88;;;26.43;50.44
20612;BME280;10465;42.686;23.364;2023-08-21T06:54:42;95412.81;;;26.58;50.78
20612;BME280;10465;42.686;23.364;2023-08-21T06:57:08;95414.72;;;26.61;50.88
20612;BME280;10465;42.686;23.364;2023-08-21T06:59:34;95407.34;;;26.65;51.01
20612;BME280;10465;42.686;23.364;2023-08-21T07:02:02;95414.66;;;26.75;51.24
20612;BME280;10465;42.686;23.364;2023-08-21T07:04:28;95401.16;;;26.61;49.73
20612;BME280;10465;42.686;23.364;2023-08-21T07:06:53;95399.94;;;26.69;49.91
20612;BME280;10465;42.686;23.364;2023-08-21T07:09:19;95394.88;;;26.78;49.62
20612;BME280;10465;42.686;23.364;2023-08-21T07:11:44;95375.50;;;26.69;49.50
20612;BME280;10465;42.686;23.364;2023-08-21T07:14:10;95411.38;;;27.05;49.13
20612;BME280;10465;42.686;23.364;2023-08-21T07:16:37;95415.66;;;27.10;49.06
20612;BME280;10465;42.686;23.364;2023-08-21T07:19:03;95407.84;;;27.19;49.01
20612;BME280;10465;42.686;23.364;2023-08-21T07:21:28;95384.59;;;27.15;48.39
20612;BME280;10465;42.686;23.364;2023-08-21T07:23:53;95387.63;;;27.24;48.51
20612;BME280;10465;42.686;23.364;2023-08-21T07:26:19;95400.66;;;27.47;48.93
20612;BME280;10465;42.686;23.364;2023-08-21T07:28:44;95398.22;;;27.56;48.49
20612;BME280;10465;42.686;23.364;2023-08-21T07:31:10;95400.44;;;27.72;47.19
20612;BME280;10465;42.686;23.364;2023-08-21T07:33:35;95390.38;;;27.65;46.94
20612;BME280;10465;42.686;23.364;2023-08-21T07:36:03;95401.53;;;27.81;46.17
20612;BME280;10465;42.686;23.364;2023-08-21T07:38:29;95397.94;;;27.92;45.51
20612;BME280;10465;42.686;23.364;2023-08-21T07:41:05;95404.38;;;28.08;45.87
20612;BME280;10465;42.686;23.364;2023-08-21T07:43:33;95392.25;;;28.13;44.21
20612;BME280;10465;42.686;23.364;2023-08-21T07:46:02;95387.50;;;28.21;44.04
20612;BME280;10465;42.686;23.364;2023-08-21T07:48:27;95402.84;;;28.42;43.32
20612;BME280;10465;42.686;23.364;2023-08-21T07:50:53;95377.63;;;28.34;43.56
20612;BME280;10465;42.686;23.364;2023-08-21T07:53:19;95396.03;;;28.61;42.98
20612;BME280;10465;42.686;23.364;2023-08-21T07:55:45;95392.75;;;28.73;42.80
20612;BME280;10465;42.686;23.364;2023-08-21T07:58:11;95369.91;;;28.63;43.13
20612;BME280;10465;42.686;23.364;2023-08-21T08:00:37;95380.88;;;28.87;43.26
20612;BME280;10465;42.686;23.364;2023-08-21T08:03:03;95392.69;;;29.07;42.19
20612;BME280;10465;42.686;23.364;2023-08-21T08:05:28;95392.91;;;29.16;42.19
20612;BME280;10465;42.686;23.364;2023-08-21T08:07:54;95378.91;;;29.18;42.16
20612;BME280;10465;42.686;23.364;2023-08-21T08:10:19;95379.03;;;29.34;41.56
20612;BME280;10465;42.686;23.364;2023-08-21T08:12:45;95375.00;;;29.42;41.62
20612;BME280;10465;42.686;23.364;2023-08-21T08:15:10;95376.81;;;29.49;42.02
20612;BME280;10465;42.686;23.364;2023-08-21T08:17:35;95375.59;;;29.53;41.28
20612;BME280;10465;42.686;23.364;2023-08-21T08:20:01;95362.13;;;29.43;40.86
20612;BME280;10465;42.686;23.364;2023-08-21T08:22:27;95370.34;;;29.66;40.53
20612;BME280;10465;42.686;23.364;2023-08-21T08:24:52;95368.53;;;29.79;40.67
20612;BME280;10465;42.686;23.364;2023-08-21T08:27:18;95370.28;;;29.90;40.82
20612;BME280;10465;42.686;23.364;2023-08-21T08:29:43;95359.81;;;29.88;40.94
20612;BME280;10465;42.686;23.364;2023-08-21T08:32:09;95342.16;;;29.93;39.27
20612;BME280;10465;42.686;23.364;2023-08-21T08:34:34;95370.16;;;30.20;39.29
20612;BME280;10465;42.686;23.364;2023-08-21T08:36:59;95340.22;;;30.13;38.84
20612;BME280;10465;42.686;23.364;2023-08-21T08:39:25;95336.19;;;30.21;38.52
20612;BME280;10465;42.686;23.364;2023-08-21T08:42:03;95360.63;;;30.48;37.95
20612;BME280;10465;42.686;23.364;2023-08-21T08:44:30;95359.78;;;30.51;37.29
20612;BME280;10465;42.686;23.364;2023-08-21T08:46:55;95348.84;;;30.51;36.97
20612;BME280;10465;42.686;23.364;2023-08-21T08:49:22;95350.16;;;30.63;37.25
20612;BME280;10465;42.686;23.364;2023-08-21T08:51:49;95352.25;;;30.75;37.05
20612;BME280;10465;42.686;23.364;2023-08-21T08:54:17;95356.38;;;30.84;37.50
20612;BME280;10465;42.686;23.364;2023-08-21T08:56:43;95339.53;;;30.85;37.44
20612;BME280;10465;42.686;23.364;2023-08-21T08:59:09;95329.16;;;30.96;37.18
20612;BME280;10465;42.686;23.364;2023-08-21T09:01:35;95351.03;;;31.13;37.16
20612;BME280;10465;42.686;23.364;2023-08-21T09:04:01;95339.66;;;31.14;37.40
20612;BME280;10465;42.686;23.364;2023-08-21T09:06:27;95339.81;;;31.23;36.06
20612;BME280;10465;42.686;23.364;2023-08-21T09:08:56;95343.09;;;31.35;35.68
20612;BME280;10465;42.686;23.364;2023-08-21T09:11:23;95336.09;;;31.34;35.90
20612;BME280;10465;42.686;23.364;2023-08-21T09:13:53;95344.38;;;31.46;34.94
20612;BME280;10465;42.686;23.364;2023-08-21T09:16:20;95346.50;;;31.55;34.87
20612;BME280;10465;42.686;23.364;2023-08-21T09:18:53;95343.94;;;31.64;34.44
20612;BME280;10465;42.686;23.364;2023-08-21T09:21:21;95338.03;;;31.66;34.87
20612;BME280;10465;42.686;23.364;2023-08-21T09:23:48;95328.59;;;31.67;35.02
20612;BME280;10465;42.686;23.364;2023-08-21T09:26:19;95326.63;;;31.67;34.51
20612;BME280;10465;42.686;23.364;2023-08-21T09:28:51;95330.03;;;31.71;34.31
20612;BME280;10465;42.686;23.364;2023-08-21T09:31:23;95323.38;;;31.72;33.82
20612;BME280;10465;42.686;23.364;2023-08-21T09:33:56;95296.97;;;31.66;34.06
20612;BME280;10465;42.686;23.364;2023-08-21T09:36:23;95324.28;;;31.98;34.24
20612;BME280;10465;42.686;23.364;2023-08-21T09:38:50;95306.41;;;31.94;34.63
20612;BME280;10465;42.686;23.364;2023-08-21T09:41:19;95318.72;;;32.15;33.85
20612;BME280;10465;42.686;23.364;2023-08-21T09:43:44;95321.09;;;32.29;33.45
20612;BME280;10465;42.686;23.364;2023-08-21T09:46:14;95324.72;;;32.39;33.20
20612;BME280;10465;42.686;23.364;2023-08-21T09:48:40;95315.75;;;32.51;32.83
20612;BME280;10465;42.686;23.364;2023-08-21T09:51:06;95301.63;;;32.53;32.32
20612;BME280;10465;42.686;23.364;2023-08-21T09:53:32;95313.78;;;32.64;32.79
20612;BME280;10465;42.686;23.364;2023-08-21T09:56:00;95309.63;;;32.72;32.12
20612;BME280;10465;42.686;23.364;2023-08-21T09:58:28;95286.50;;;32.61;33.49
20612;BME280;10465;42.686;23.364;2023-08-21T10:00:57;95304.94;;;32.86;31.96
20612;BME280;10465;42.686;23.364;2023-08-21T10:03:23;95306.69;;;32.92;32.98
20612;BME280;10465;42.686;23.364;2023-08-21T10:05:49;95290.00;;;32.87;33.56
20612;BME280;10465;42.686;23.364;2023-08-21T10:08:21;95305.91;;;32.92;33.88
20612;BME280;10465;42.686;23.364;2023-08-21T10:10:48;95289.56;;;32.88;33.08
20612;BME280;10465;42.686;23.364;2023-08-21T10:13:14;95298.81;;;32.94;32.92
20612;BME280;10465;42.686;23.364;2023-08-21T10:15:40;95292.97;;;32.92;32.50
20612;BME280;10465;42.686;23.364;2023-08-21T10:18:23;95289.25;;;32.86;32.41
20612;BME280;10465;42.686;23.364;2023-08-21T10:20:49;95284.28;;;32.81;32.25
20612;BME280;10465;42.686;23.364;2023-08-21T10:23:27;95292.84;;;32.83;32.37
20612;BME280;10465;42.686;23.364;2023-08-21T10:26:00;95279.03;;;32.87;31.31
20612;BME280;10465;42.686;23.364;2023-08-21T10:28:52;95272.91;;;32.95;30.85
20612;BME280;10465;42.686;23.364;2023-08-21T10:31:31;95275.75;;;33.05;30.86
20612;BME280;10465;42.686;23.364;2023-08-21T10:33:58;95244.94;;;33.01;31.50
20612;BME280;10465;42.686;23.364;2023-08-21T10:39:24;95248.34;;;33.39;31.07
20612;BME280;10465;42.686;23.364;2023-08-21T10:41:59;95260.94;;;33.50;31.24
20612;BME280;10465;42.686;23.364;2023-08-21T10:47:15;95259.19;;;33.56;29.40
20612;BME280;10465;42.686;23.364;2023-08-21T10:49:44;95220.50;;;33.28;29.58
20612;BME280;10465;42.686;23.364;2023-08-21T10:52:10;95246.94;;;33.47;29.08
20612;BME280;10465;42.686;23.364;2023-08-21T10:54:43;95220.50;;;33.28;28.89
20612;BME280;10465;42.686;23.364;2023-08-21T10:57:09;95238.81;;;33.66;29.13
20612;BME280;10465;42.686;23.364;2023-08-21T10:59:34;95224.31;;;33.65;28.39
20612;BME280;10465;42.686;23.364;2023-08-21T11:02:00;95237.22;;;33.78;28.04
20612;BME280;10465;42.686;23.364;2023-08-21T11:04:25;95221.91;;;33.67;28.59
20612;BME280;10465;42.686;23.364;2023-08-21T11:06:51;95241.25;;;33.64;28.19
20612;BME280;10465;42.686;23.364;2023-08-21T11:09:17;95224.63;;;33.45;28.00
20612;BME280;10465;42.686;23.364;2023-08-21T11:11:43;95235.06;;;33.51;28.14
20612;BME280;10465;42.686;23.364;2023-08-21T11:14:09;95229.63;;;33.60;28.34
20612;BME280;10465;42.686;23.364;2023-08-21T11:16:34;95239.91;;;33.68;28.51
20612;BME280;10465;42.686;23.364;2023-08-21T11:19:03;95241.13;;;33.89;28.73
20612;BME280;10465;42.686;23.364;2023-08-21T11:21:30;95210.03;;;33.92;28.04
20612;BME280;10465;42.686;23.364;2023-08-21T11:23:55;95229.31;;;34.24;27.46
20612;BME280;10465;42.686;23.364;2023-08-21T11:26:21;95230.22;;;34.30;26.92
20612;BME280;10465;42.686;23.364;2023-08-21T11:28:47;95235.53;;;34.55;27.15
20612;BME280;10465;42.686;23.364;2023-08-21T11:31:13;95236.16;;;34.59;27.44
20612;BME280;10465;42.686;23.364;2023-08-21T11:33:38;95223.97;;;34.60;27.00
20612;BME280;10465;42.686;23.364;2023-08-21T11:36:04;95225.25;;;34.78;26.56
20612;BME280;10465;42.686;23.364;2023-08-21T11:38:30;95213.50;;;34.86;26.47
20612;BME280;10465;42.686;23.364;2023-08-21T11:41:00;95210.75;;;34.96;26.11
20612;BME280;10465;42.686;23.364;2023-08-21T11:46:08;95218.94;;;35.17;26.01
20612;BME280;10465;42.686;23.364;2023-08-21T11:48:37;95215.56;;;35.23;25.66
20612;BME280;10465;42.686;23.364;2023-08-21T11:51:02;95202.41;;;35.08;25.35
20612;BME280;10465;42.686;23.364;2023-08-21T11:53:38;95213.25;;;35.12;25.81
20612;BME280;10465;42.686;23.364;2023-08-21T11:58:44;95210.69;;;35.17;24.75
20612;BME280;10465;42.686;23.364;2023-08-21T12:01:18;95210.06;;;35.23;24.96
20612;BME280;10465;42.686;23.364;2023-08-21T12:03:43;95176.13;;;35.16;24.86
20612;BME280;10465;42.686;23.364;2023-08-21T12:06:10;95209.47;;;35.37;24.52
20612;BME280;10465;42.686;23.364;2023-08-21T12:08:36;95196.63;;;35.34;24.71
20612;BME280;10465;42.686;23.364;2023-08-21T12:11:02;95207.78;;;35.49;24.64
20612;BME280;10465;42.686;23.364;2023-08-21T12:13:27;95214.06;;;35.58;24.88
20612;BME280;10465;42.686;23.364;2023-08-21T12:15:53;95184.69;;;35.46;24.97
20612;BME280;10465;42.686;23.364;2023-08-21T12:18:18;95204.88;;;35.71;24.46
20612;BME280;10465;42.686;23.364;2023-08-21T12:20:44;95197.66;;;35.73;23.89
20612;BME280;10465;42.686;23.364;2023-08-21T12:23:09;95204.72;;;35.74;24.18
20612;BME280;10465;42.686;23.364;2023-08-21T12:25:35;95174.13;;;35.63;24.46
20612;BME280;10465;42.686;23.364;2023-08-21T12:28:00;95190.81;;;35.78;24.45
20612;BME280;10465;42.686;23.364;2023-08-21T12:30:26;95193.69;;;35.83;23.01
20612;BME280;10465;42.686;23.364;2023-08-21T12:32:52;95201.19;;;35.83;23.39
20612;BME280;10465;42.686;23.364;2023-08-21T12:35:17;95177.63;;;35.73;23.44
20612;BME280;10465;42.686;23.364;2023-08-21T12:37:43;95184.78;;;35.88;22.77
20612;BME280;10465;42.686;23.364;2023-08-21T12:40:08;95191.53;;;35.87;23.39
20612;BME280;10465;42.686;23.364;2023-08-21T12:42:34;95180.03;;;35.89;22.78
20612;BME280;10465;42.686;23.364;2023-08-21T12:45:00;95180.03;;;35.89;23.11
20612;BME280;10465;42.686;23.364;2023-08-21T12:47:25;95175.63;;;35.82;23.25
20612;BME280;10465;42.686;23.364;2023-08-21T12:49:51;95172.25;;;35.87;23.47
20612;BME280;10465;42.686;23.364;2023-08-21T12:52:16;95176.38;;;35.92;23.54
20612;BME280;10465;42.686;23.364;2023-08-21T12:54:42;95144.88;;;35.84;23.00
20612;BME280;10465;42.686;23.364;2023-08-21T12:57:08;95169.78;;;36.08;23.98
20612;BME280;10465;42.686;23.364;2023-08-21T12:59:34;95151.41;;;36.05;23.03